createdAt,value
2023-05-22T00:03:31.094Z,18.77
2023-05-22T00:09:33.315Z,18.67
2023-05-22T00:15:35.480Z,18.56
2023-05-22T00:21:37.558Z,18.19
2023-05-22T00:27:39.473Z,18.13
2023-05-22T00:33:41.412Z,18.03
2023-05-22T00:39:43.691Z,17.96
2023-05-22T00:45:45.826Z,17.90
2023-05-22T00:51:48.107Z,17.99
2023-05-22T00:57:51.962Z,17.96
2023-05-22T01:03:54.373Z,18.02
2023-05-22T01:09:57.425Z,18.03
2023-05-22T01:16:32.814Z,18.37
2023-05-22T01:23:21.064Z,18.86
2023-05-22T01:29:41.112Z,19.17
2023-05-22T01:35:50.554Z,19.36
2023-05-22T01:41:52.701Z,19.48
2023-05-22T01:47:54.699Z,19.57
2023-05-22T01:54:24.146Z,19.17
2023-05-22T02:00:28.206Z,19.04
2023-05-22T02:06:33.366Z,18.57
2023-05-22T02:12:36.371Z,18.06
2023-05-22T02:18:41.687Z,17.72
2023-05-22T02:24:47.490Z,17.33
2023-05-22T02:30:49.465Z,17.09
2023-05-22T02:36:51.486Z,16.87
2023-05-22T02:42:56.423Z,16.66
2023-05-22T02:48:58.366Z,16.68
2023-05-22T02:55:00.475Z,16.54
2023-05-22T03:01:03.534Z,16.35
2023-05-22T03:07:06.954Z,16.26
2023-05-22T03:13:09.304Z,16.41
2023-05-22T03:19:15.653Z,16.81
2023-05-22T03:25:17.827Z,16.83
2023-05-22T03:31:19.796Z,17.10
2023-05-22T03:37:21.788Z,17.20
2023-05-22T03:43:23.739Z,17.07
2023-05-22T03:49:25.842Z,17.22
2023-05-22T03:55:27.794Z,17.27
2023-05-22T04:01:30.014Z,17.31
2023-05-22T04:07:32.785Z,17.38
2023-05-22T04:13:34.836Z,17.46
2023-05-22T04:19:37.246Z,17.67
2023-05-22T04:25:39.933Z,17.89
2023-05-22T04:31:42.970Z,17.71
2023-05-22T04:37:48.040Z,17.74
2023-05-22T04:43:50.181Z,17.86
2023-05-22T04:49:52.074Z,17.70
2023-05-22T04:56:00.854Z,17.67
2023-05-22T05:02:02.833Z,17.92
2023-05-22T05:08:05.096Z,18.28
2023-05-22T05:14:07.178Z,18.58
2023-05-22T05:20:10.584Z,18.78
2023-05-22T05:26:12.733Z,18.79
2023-05-22T05:32:14.936Z,19.18
2023-05-22T05:38:17.451Z,19.11
2023-05-22T05:44:19.390Z,19.29
2023-05-22T05:50:23.710Z,19.69
2023-05-22T05:56:25.707Z,20.01
2023-05-22T06:02:27.760Z,19.94
2023-05-22T06:08:29.867Z,20.19
2023-05-22T06:14:31.862Z,20.71
2023-05-22T06:20:35.371Z,21.01
2023-05-22T06:26:37.410Z,21.32
2023-05-22T06:32:39.743Z,21.76
2023-05-22T06:38:41.828Z,22.34
2023-05-22T06:44:43.739Z,22.87
2023-05-22T06:50:45.727Z,22.95
2023-05-22T06:56:47.724Z,23.37
2023-05-22T07:02:54.688Z,23.75
2023-05-22T07:08:57.437Z,24.27
2023-05-22T07:15:00.215Z,24.75
2023-05-22T07:27:29.363Z,25.53
2023-05-22T07:40:07.488Z,26.04
2023-05-22T07:46:11.009Z,26.25
2023-05-22T07:52:12.975Z,26.11
2023-05-22T07:58:15.605Z,26.43
2023-05-22T08:04:17.963Z,26.63
2023-05-22T08:10:20.206Z,27.01
2023-05-22T08:16:23.046Z,27.69
2023-05-22T08:22:25.089Z,28.01
2023-05-22T08:28:27.035Z,27.79
2023-05-22T08:34:29.328Z,27.96
2023-05-22T08:40:45.233Z,28.26
2023-05-22T08:46:49.454Z,28.53
2023-05-22T08:52:57.155Z,29.07
2023-05-22T08:59:04.807Z,29.09
2023-05-22T09:05:09.150Z,29.01
2023-05-22T09:11:12.568Z,29.10
2023-05-22T09:17:18.175Z,29.15
2023-05-22T09:23:22.038Z,29.60
2023-05-22T09:29:24.218Z,30.07
2023-05-22T09:35:27.877Z,30.80
2023-05-22T09:41:33.983Z,30.79
2023-05-22T09:47:36.374Z,30.67
2023-05-22T09:53:42.615Z,29.97
2023-05-22T09:59:46.784Z,29.63
2023-05-22T10:05:53.638Z,29.41
2023-05-22T10:12:04.131Z,29.94
2023-05-22T10:18:06.994Z,30.77
2023-05-22T10:24:10.057Z,31.51
2023-05-22T10:30:39.709Z,31.64
2023-05-22T10:37:21.436Z,31.63
2023-05-22T10:43:24.657Z,32.35
2023-05-22T10:49:28.414Z,33.48
2023-05-22T10:55:30.460Z,33.57
2023-05-22T11:01:37.860Z,33.03
2023-05-22T11:07:43.455Z,33.42
2023-05-22T11:13:52.728Z,34.07
2023-05-22T11:20:00.639Z,33.32
2023-05-22T11:26:25.537Z,33.76
2023-05-22T11:32:30.007Z,34.51
2023-05-22T11:38:33.093Z,35.05
2023-05-22T11:44:34.989Z,34.97
2023-05-22T11:56:53.524Z,36.67
2023-05-22T12:02:55.664Z,36.14
2023-05-22T12:08:57.929Z,35.70
2023-05-22T12:14:59.945Z,35.80
2023-05-22T12:21:01.908Z,36.69
2023-05-22T12:27:10.857Z,37.19
2023-05-22T12:33:14.977Z,36.58
2023-05-22T12:39:18.961Z,36.71
2023-05-22T12:45:21.018Z,36.26
2023-05-22T12:51:24.224Z,36.07
2023-05-22T12:57:26.193Z,35.76
2023-05-22T13:03:28.629Z,35.79
2023-05-22T13:09:33.152Z,35.32
2023-05-22T13:15:36.329Z,36.08
2023-05-22T13:21:43.127Z,36.02
2023-05-22T13:27:48.985Z,37.21
2023-05-22T13:33:52.416Z,37.22
2023-05-22T13:39:54.427Z,36.50
2023-05-22T13:45:56.786Z,35.53
2023-05-22T13:51:59.049Z,35.02
2023-05-22T13:58:05.069Z,34.93
2023-05-22T14:04:12.759Z,35.77
2023-05-22T14:10:17.998Z,35.79
2023-05-22T14:16:23.165Z,36.85
2023-05-22T14:22:25.531Z,38.27
2023-05-22T14:28:27.575Z,38.28
2023-05-22T14:34:31.879Z,38.08
2023-05-22T14:40:33.801Z,37.91
2023-05-22T14:46:36.241Z,38.38
2023-05-22T14:52:38.610Z,38.89
2023-05-22T14:58:40.521Z,37.77
2023-05-22T15:04:42.539Z,37.96
2023-05-22T15:10:52.806Z,38.06
2023-05-22T15:16:54.834Z,36.49
2023-05-22T15:22:58.351Z,35.56
2023-05-22T15:29:01.361Z,35.23
2023-05-22T15:35:03.857Z,34.40
2023-05-22T15:41:05.900Z,33.32
2023-05-22T15:47:08.785Z,32.61
2023-05-22T15:53:17.887Z,33.49
2023-05-22T15:59:26.771Z,34.77
2023-05-22T16:05:32.092Z,35.83
2023-05-22T16:11:34.873Z,35.59
2023-05-22T16:17:38.210Z,34.96
2023-05-22T16:23:40.160Z,33.97
2023-05-22T16:29:44.098Z,33.16
2023-05-22T16:35:48.825Z,31.46
2023-05-22T16:41:53.588Z,30.50
2023-05-22T16:48:01.631Z,29.41
2023-05-22T16:54:03.936Z,28.22
2023-05-22T17:06:22.791Z,26.94
2023-05-22T17:12:24.746Z,25.74
2023-05-22T17:18:26.801Z,24.74
2023-05-22T17:24:29.993Z,24.45
2023-05-22T17:30:31.932Z,24.15
2023-05-22T17:36:34.018Z,23.20
2023-05-22T17:42:36.010Z,22.69
2023-05-22T17:48:37.975Z,22.20
2023-05-22T17:54:39.921Z,21.81
2023-05-22T18:00:43.341Z,21.36
2023-05-22T18:06:45.399Z,21.40
2023-05-22T18:12:47.326Z,21.37
2023-05-22T18:18:49.325Z,21.15
2023-05-22T18:24:51.389Z,21.13
2023-05-22T18:30:54.153Z,20.64
2023-05-22T18:36:57.369Z,20.68
2023-05-22T18:42:59.439Z,20.54
2023-05-22T18:49:01.847Z,20.62
2023-05-22T18:55:07.733Z,20.40
2023-05-22T19:09:01.461Z,20.22
2023-05-22T19:15:03.730Z,20.32
2023-05-22T19:21:06.822Z,20.05
2023-05-22T19:27:08.952Z,20.09
2023-05-22T19:33:11.899Z,20.19
2023-05-22T19:39:13.885Z,19.50
2023-05-22T19:45:16.653Z,19.54
2023-05-22T19:51:18.611Z,19.59
2023-05-22T19:57:20.805Z,19.28
2023-05-22T20:03:23.437Z,19.19
2023-05-22T20:09:28.407Z,19.30
2023-05-22T20:15:30.563Z,19.09
2023-05-22T20:21:32.774Z,19.04
2023-05-22T20:27:38.119Z,19.06
2023-05-22T20:33:40.186Z,19.28
2023-05-22T20:39:42.469Z,19.17
2023-05-22T20:45:45.685Z,18.96
2023-05-22T20:51:49.998Z,18.96
2023-05-22T20:57:59.398Z,18.82
2023-05-22T21:04:02.429Z,18.82
2023-05-22T21:10:04.795Z,18.53
2023-05-22T21:16:07.209Z,18.28
2023-05-22T21:22:09.321Z,18.07
2023-05-22T21:28:14.003Z,18.14
2023-05-22T21:34:16.565Z,18.08
2023-05-22T21:40:18.641Z,17.98
2023-05-22T21:52:31.750Z,18.39
2023-05-22T21:58:33.689Z,18.17
2023-05-22T22:04:38.722Z,18.05
2023-05-22T22:10:40.921Z,17.95
2023-05-22T22:23:05.545Z,17.66
2023-05-22T22:29:07.605Z,17.45
2023-05-22T22:35:10.279Z,17.31
2023-05-22T22:41:12.236Z,17.41
2023-05-22T22:53:31.837Z,17.42
2023-05-22T22:59:35.406Z,17.34
2023-05-22T23:05:37.584Z,17.40
2023-05-22T23:11:39.607Z,17.32
2023-05-22T23:17:42.050Z,17.18
2023-05-22T23:23:44.020Z,17.25
2023-05-22T23:29:45.933Z,17.25
2023-05-22T23:35:47.966Z,17.26
2023-05-22T23:41:49.967Z,17.17
2023-05-22T23:47:52.024Z,17.05
2023-05-22T23:53:54.100Z,16.75
2023-05-22T23:59:56.042Z,16.61
